Time;durP1;ratioP1;P1;durP2;ratioP2;P2;SDS_P1;SDS_P2;PMS_P1;PMS_P2;Temp;Humidity;BMP_temperature;BMP_pressure;BME280_temperature;BME280_humidity;BME280_pressure;Samples;Min_cycle;Max_cycle;Signal;HPM_P1;HPM_P2
2023/05/25 00:00:07;;;;;;;;;;;;;;;13.98;62.04;100482.25;5069767;28;19912;-57
2023/05/25 00:02:33;;;;;;;;;;;;;;;13.92;61.79;100482.50;5069019;28;19924;-56
2023/05/25 00:04:59;;;;;;;;;;;;;;;13.91;62.06;100483.41;5070174;28;19965;-56
2023/05/25 00:07:25;;;;;;;;;;;;;;;13.88;62.39;100486.19;5070442;28;19961;-57
2023/05/25 00:09:50;;;;;;;;;;;;;;;13.87;62.92;100484.47;5069221;28;19920;-56
2023/05/25 00:12:15;;;;;;;;;;;;;;;13.86;63.13;100485.38;5070372;28;19912;-57
2023/05/25 00:14:41;;;;;;;;;;;;;;;13.86;62.98;100480.03;5069730;28;19913;-56
2023/05/25 00:17:08;;;;;;;;;;;;;;;13.80;63.72;100477.59;5070044;28;19912;-57
2023/05/25 00:19:34;;;;;;;;;;;;;;;13.76;63.50;100467.94;5069881;28;20283;-57
2023/05/25 00:22:02;;;;;;;;;;;;;;;13.68;63.75;100467.38;5068644;28;19920;-57
2023/05/25 00:24:27;;;;;;;;;;;;;;;13.55;63.94;100468.75;5052009;28;20422;-56
2023/05/25 00:26:53;;;;;;;;;;;;;;;13.55;64.88;100463.41;5064412;28;19912;-57
2023/05/25 00:29:18;;;;;;;;;;;;;;;13.53;64.78;100468.81;5069753;28;19912;-57
2023/05/25 00:31:43;;;;;;;;;;;;;;;13.47;65.87;100458.38;5070005;28;19944;-57
2023/05/25 00:34:09;;;;;;;;;;;;;;;13.46;65.46;100455.75;5068716;28;19912;-57
2023/05/25 00:36:34;;;;;;;;;;;;;;;13.46;66.05;100459.28;5069963;28;20260;-56
2023/05/25 00:38:59;;;;;;;;;;;;;;;13.46;65.41;100455.75;5068908;28;20420;-57
2023/05/25 00:41:26;;;;;;;;;;;;;;;13.49;66.21;100445.84;5055809;28;19917;-56
2023/05/25 00:43:51;;;;;;;;;;;;;;;13.39;65.64;100455.13;5067776;28;19916;-57
2023/05/25 00:46:17;;;;;;;;;;;;;;;13.40;66.58;100453.28;5068547;28;19909;-57
2023/05/25 00:48:42;;;;;;;;;;;;;;;13.36;66.03;100444.50;5069426;28;19916;-56
2023/05/25 00:51:08;;;;;;;;;;;;;;;13.38;65.52;100453.34;5065819;28;20364;-57
2023/05/25 00:53:35;;;;;;;;;;;;;;;13.30;66.18;100454.56;5067567;28;19916;-57
2023/05/25 00:56:04;;;;;;;;;;;;;;;13.21;66.10;100451.28;5069496;28;19945;-57
2023/05/25 00:58:30;;;;;;;;;;;;;;;13.23;66.42;100455.72;5068902;28;19920;-57
2023/05/25 01:00:57;;;;;;;;;;;;;;;13.17;66.50;100449.69;5070011;28;20364;-57
2023/05/25 01:03:27;;;;;;;;;;;;;;;13.19;66.22;100453.13;5058825;28;20392;-56
2023/05/25 01:05:53;;;;;;;;;;;;;;;13.17;66.48;100448.81;5064011;28;20031;-56
2023/05/25 01:08:21;;;;;;;;;;;;;;;13.17;66.49;100448.81;5069197;28;19919;-56
2023/05/25 01:10:47;;;;;;;;;;;;;;;13.18;66.22;100448.75;5053133;28;19916;-56
2023/05/25 01:13:16;;;;;;;;;;;;;;;13.19;65.90;100446.94;5067291;28;19917;-56
2023/05/25 01:15:41;;;;;;;;;;;;;;;13.12;66.63;100446.31;5050111;28;19958;-56
2023/05/25 01:18:08;;;;;;;;;;;;;;;13.10;66.97;100450.81;5066980;28;20423;-57
2023/05/25 01:20:34;;;;;;;;;;;;;;;13.08;66.64;100452.66;5067956;28;19912;-56
2023/05/25 01:23:02;;;;;;;;;;;;;;;12.98;67.78;100453.88;5068194;28;19913;-56
2023/05/25 01:25:39;;;;;;;;;;;;;;;12.99;68.03;100450.31;5067328;28;19951;-57
2023/05/25 01:28:10;;;;;;;;;;;;;;;12.96;67.76;100449.53;5068307;28;20007;-57
2023/05/25 01:30:38;;;;;;;;;;;;;;;12.94;69.17;100451.38;5065613;28;20802;-57
2023/05/25 01:33:05;;;;;;;;;;;;;;;12.90;69.18;100455.06;5067402;28;19909;-56
2023/05/25 01:35:31;;;;;;;;;;;;;;;12.86;68.96;100459.69;5069530;28;20034;-57
2023/05/25 01:37:57;;;;;;;;;;;;;;;12.87;67.97;100450.72;5071349;28;20382;-56
2023/05/25 01:40:23;;;;;;;;;;;;;;;12.92;69.05;100454.13;5072277;28;19951;-56
2023/05/25 01:42:48;;;;;;;;;;;;;;;12.92;68.59;100459.44;5072929;28;19912;-56
2023/05/25 01:45:14;;;;;;;;;;;;;;;12.86;67.75;100454.34;5072425;28;19908;-57
2023/05/25 01:47:48;;;;;;;;;;;;;;;12.88;68.53;100457.78;5070530;28;19919;-57
2023/05/25 01:50:34;;;;;;;;;;;;;;;12.84;67.65;100456.19;5070933;28;20375;-56
2023/05/25 01:53:02;;;;;;;;;;;;;;;12.84;67.65;100456.19;5071816;28;20022;-56
2023/05/25 01:55:28;;;;;;;;;;;;;;;12.84;68.39;100455.28;5071657;28;19912;-57
2023/05/25 01:57:56;;;;;;;;;;;;;;;12.86;67.94;100459.69;5070746;28;20380;-56
2023/05/25 02:00:23;;;;;;;;;;;;;;;12.87;67.65;100455.19;5072003;28;19913;-56
2023/05/25 02:02:49;;;;;;;;;;;;;;;12.87;67.24;100456.06;5072734;28;19920;-56
2023/05/25 02:05:17;;;;;;;;;;;;;;;12.91;68.00;100452.38;5071539;28;20422;-56
2023/05/25 02:07:42;;;;;;;;;;;;;;;12.87;68.36;100449.84;5072363;28;19912;-56
2023/05/25 02:10:08;;;;;;;;;;;;;;;12.85;67.16;100447.22;5071197;28;19970;-56
2023/05/25 02:12:34;;;;;;;;;;;;;;;12.87;67.52;100445.38;5071527;28;19924;-57
2023/05/25 02:14:59;;;;;;;;;;;;;;;12.93;67.33;100433.63;5070502;28;20296;-56
2023/05/25 02:17:26;;;;;;;;;;;;;;;12.95;66.50;100437.97;5070789;28;19963;-56
2023/05/25 02:19:53;;;;;;;;;;;;;;;12.90;67.11;100439.94;5069653;28;20034;-57
2023/05/25 02:22:18;;;;;;;;;;;;;;;12.90;67.98;100439.94;5071342;28;19935;-56
2023/05/25 02:24:45;;;;;;;;;;;;;;;12.90;67.74;100439.06;5070848;28;20391;-57
2023/05/25 02:27:11;;;;;;;;;;;;;;;12.91;67.92;100425.69;5070683;28;19916;-57
2023/05/25 02:29:37;;;;;;;;;;;;;;;12.92;67.52;100430.09;5071395;28;19916;-56
2023/05/25 02:32:02;;;;;;;;;;;;;;;12.94;67.79;100436.25;5071655;28;19922;-56
2023/05/25 02:34:27;;;;;;;;;;;;;;;12.96;67.71;100437.03;5071251;28;19912;-56
2023/05/25 02:36:53;;;;;;;;;;;;;;;12.85;68.31;100441.91;5070987;28;20364;-56
2023/05/25 02:39:18;;;;;;;;;;;;;;;12.88;68.52;100435.59;5071922;28;19958;-56
2023/05/25 02:41:43;;;;;;;;;;;;;;;12.84;68.40;100440.16;5068383;28;19918;-56
2023/05/25 02:44:09;;;;;;;;;;;;;;;12.75;67.95;100435.13;5062324;28;19956;-56
2023/05/25 02:46:34;;;;;;;;;;;;;;;12.75;68.78;100434.28;5071345;28;19916;-57
2023/05/25 02:48:59;;;;;;;;;;;;;;;12.74;68.64;100422.72;5071863;28;20357;-57
2023/05/25 02:51:25;;;;;;;;;;;;;;;12.66;69.40;100432.78;5069937;28;19935;-56
2023/05/25 02:53:51;;;;;;;;;;;;;;;12.56;69.22;100423.34;5051939;28;19959;-57
2023/05/25 02:56:16;;;;;;;;;;;;;;;12.59;69.57;100427.69;5066102;28;20065;-56
2023/05/25 02:58:41;;;;;;;;;;;;;;;12.50;69.88;100425.34;5071197;28;20272;-56
2023/05/25 03:01:09;;;;;;;;;;;;;;;12.41;70.08;100437.22;5052383;28;19916;-56
2023/05/25 03:03:34;;;;;;;;;;;;;;;12.47;70.33;100439.66;5070383;28;20391;-56
2023/05/25 03:06:00;;;;;;;;;;;;;;;12.44;69.95;100438.88;5069726;28;19918;-57
2023/05/25 03:08:25;;;;;;;;;;;;;;;12.42;70.04;100432.75;5070725;28;19947;-56
2023/05/25 03:10:50;;;;;;;;;;;;;;;12.39;70.46;100441.72;5069813;28;19920;-56
2023/05/25 03:13:16;;;;;;;;;;;;;;;12.36;70.92;100433.81;5070497;28;20022;-57
2023/05/25 03:15:41;;;;;;;;;;;;;;;12.31;70.97;100435.75;5070423;28;20427;-56
2023/05/25 03:18:06;;;;;;;;;;;;;;;12.32;71.39;100437.50;5071250;28;19916;-56
2023/05/25 03:20:32;;;;;;;;;;;;;;;12.27;72.79;100442.16;5049402;28;19920;-56
2023/05/25 03:22:57;;;;;;;;;;;;;;;12.23;72.41;100445.81;5049855;28;20420;-56
2023/05/25 03:25:23;;;;;;;;;;;;;;;12.15;72.37;100446.97;5058758;28;19912;-56
2023/05/25 03:27:50;;;;;;;;;;;;;;;12.10;73.17;100443.59;5067807;28;20422;-56
2023/05/25 03:30:16;;;;;;;;;;;;;;;12.05;72.67;100461.53;5070047;28;20006;-56
2023/05/25 03:32:41;;;;;;;;;;;;;;;12.05;73.42;100450.84;5070880;28;19916;-56
2023/05/25 03:35:06;;;;;;;;;;;;;;;12.08;73.83;100456.09;5071290;28;19958;-56
2023/05/25 03:37:31;;;;;;;;;;;;;;;12.05;73.27;100462.41;5070664;28;20011;-57
2023/05/25 03:39:57;;;;;;;;;;;;;;;11.98;73.07;100450.19;5069913;28;19977;-56
2023/05/25 03:42:22;;;;;;;;;;;;;;;11.98;74.16;100460.84;5069784;28;19916;-56
2023/05/25 03:44:47;;;;;;;;;;;;;;;11.99;74.40;100462.59;5050294;28;20368;-56
2023/05/25 03:47:13;;;;;;;;;;;;;;;12.00;73.97;100464.34;5067863;28;19916;-56
2023/05/25 03:49:38;;;;;;;;;;;;;;;12.02;74.16;100472.28;5067877;28;19912;-56
2023/05/25 03:52:05;;;;;;;;;;;;;;;11.97;73.91;100464.44;5070401;28;19915;-57
2023/05/25 03:54:30;;;;;;;;;;;;;;;11.98;73.62;100471.50;5068798;28;20383;-56
2023/05/25 03:56:57;;;;;;;;;;;;;;;11.96;74.30;100473.34;5069318;28;19919;-56
2023/05/25 03:59:24;;;;;;;;;;;;;;;12.02;74.74;100478.50;5069224;28;19926;-56
2023/05/25 04:01:49;;;;;;;;;;;;;;;12.05;73.73;100482.84;5069833;28;19914;-56
2023/05/25 04:04:14;;;;;;;;;;;;;;;12.07;75.04;100479.22;5069584;28;19927;-56
2023/05/25 04:06:41;;;;;;;;;;;;;;;12.10;75.20;100486.25;5070333;28;19935;-56
2023/05/25 04:09:06;;;;;;;;;;;;;;;12.10;75.75;100487.13;5068692;28;20007;-56
2023/05/25 04:11:32;;;;;;;;;;;;;;;12.09;75.03;100498.72;5070102;28;20027;-56
2023/05/25 04:13:58;;;;;;;;;;;;;;;12.14;75.22;100494.09;5069924;28;19954;-56
2023/05/25 04:16:24;;;;;;;;;;;;;;;12.12;76.44;100498.63;5069984;28;19912;-56
2023/05/25 04:18:50;;;;;;;;;;;;;;;12.08;75.88;100498.75;5069488;28;19966;-56
2023/05/25 04:21:15;;;;;;;;;;;;;;;12.10;75.89;100500.47;5070130;28;19951;-56
2023/05/25 04:23:41;;;;;;;;;;;;;;;12.05;75.91;100499.72;5069385;28;19923;-56
2023/05/25 04:26:09;;;;;;;;;;;;;;;12.00;77.20;100506.13;5070301;28;20295;-56
2023/05/25 04:28:34;;;;;;;;;;;;;;;12.05;76.20;100498.84;5069787;28;19947;-56
2023/05/25 04:31:00;;;;;;;;;;;;;;;12.11;76.05;100504.88;5068316;28;20336;-56
2023/05/25 04:33:28;;;;;;;;;;;;;;;12.16;76.49;100502.94;5069722;28;19943;-56
2023/05/25 04:35:53;;;;;;;;;;;;;;;12.26;75.88;100503.50;5069303;28;20655;-56
2023/05/25 04:38:23;;;;;;;;;;;;;;;12.27;75.86;100499.94;5070347;28;19919;-56
2023/05/25 04:40:49;;;;;;;;;;;;;;;12.27;76.35;100511.50;5060799;28;19995;-56
2023/05/25 04:43:16;;;;;;;;;;;;;;;12.31;75.99;100509.56;5066428;28;20015;-56
2023/05/25 04:45:42;;;;;;;;;;;;;;;12.32;75.97;100509.53;5069540;28;19909;-56
2023/05/25 04:48:08;;;;;;;;;;;;;;;12.38;76.34;100509.34;5068604;28;19926;-56
2023/05/25 04:50:33;;;;;;;;;;;;;;;12.40;76.40;100512.84;5066169;28;19908;-56
2023/05/25 04:52:59;;;;;;;;;;;;;;;12.42;76.03;100513.63;5049737;28;19909;-56
2023/05/25 04:55:24;;;;;;;;;;;;;;;12.51;76.79;100515.16;5049746;28;19960;-56
2023/05/25 04:57:52;;;;;;;;;;;;;;;12.51;75.46;100516.03;5060049;28;19920;-56
2023/05/25 05:00:17;;;;;;;;;;;;;;;12.56;75.87;100519.41;5068964;28;19919;-56
2023/05/25 05:02:43;;;;;;;;;;;;;;;12.66;75.74;100525.31;5069309;28;19924;-56
2023/05/25 05:05:08;;;;;;;;;;;;;;;12.64;75.82;100529.81;5069371;28;19912;-56
2023/05/25 05:07:33;;;;;;;;;;;;;;;12.73;75.75;100522.41;5069354;28;19915;-56
2023/05/25 05:09:59;;;;;;;;;;;;;;;12.80;75.37;100523.09;5068318;28;20296;-56
2023/05/25 05:12:24;;;;;;;;;;;;;;;12.96;75.73;100518.97;5071637;28;19978;-56
2023/05/25 05:14:49;;;;;;;;;;;;;;;13.13;74.47;100525.50;5073662;28;19908;-56
2023/05/25 05:17:16;;;;;;;;;;;;;;;13.23;73.54;100533.19;5073385;28;20314;-56
2023/05/25 05:19:41;;;;;;;;;;;;;;;13.34;73.31;100531.00;5063904;28;19924;-56
2023/05/25 05:22:08;;;;;;;;;;;;;;;13.36;72.87;100534.50;5053004;28;20007;-56
2023/05/25 05:24:34;;;;;;;;;;;;;;;13.45;72.95;100539.50;5064499;28;19920;-56
2023/05/25 05:27:00;;;;;;;;;;;;;;;13.47;72.90;100533.19;5054884;28;20417;-56
2023/05/25 05:29:27;;;;;;;;;;;;;;;13.56;72.47;100538.19;5072711;28;19966;-56
2023/05/25 05:31:53;;;;;;;;;;;;;;;13.65;71.87;100542.34;5073276;28;19923;-56
2023/05/25 05:34:18;;;;;;;;;;;;;;;13.79;71.27;100542.72;5073449;28;19912;-56
2023/05/25 05:36:43;;;;;;;;;;;;;;;13.74;70.55;100542.00;5072617;28;20011;-56
2023/05/25 05:39:08;;;;;;;;;;;;;;;13.86;70.11;100547.75;5073106;28;19908;-56
2023/05/25 05:41:34;;;;;;;;;;;;;;;14.00;71.34;100544.56;5071650;28;20363;-56
2023/05/25 05:44:00;;;;;;;;;;;;;;;14.13;69.82;100549.41;5072946;28;19958;-56
2023/05/25 05:46:25;;;;;;;;;;;;;;;14.12;69.08;100555.66;5072855;28;19958;-56
2023/05/25 05:48:51;;;;;;;;;;;;;;;14.18;67.50;100555.41;5072984;28;20314;-56
2023/05/25 05:51:16;;;;;;;;;;;;;;;14.31;68.15;100550.53;5072224;28;20438;-56
2023/05/25 05:53:41;;;;;;;;;;;;;;;14.36;68.29;100549.38;5073040;28;19959;-57
2023/05/25 05:56:15;;;;;;;;;;;;;;;14.32;66.60;100558.47;5072096;28;19920;-57
2023/05/25 05:58:40;;;;;;;;;;;;;;;14.54;67.90;100563.88;5071538;28;19916;-57
2023/05/25 06:01:05;;;;;;;;;;;;;;;14.64;66.66;100559.88;5072639;28;19908;-56
2023/05/25 06:03:31;;;;;;;;;;;;;;;14.75;67.07;100556.75;5059600;28;20408;-56
2023/05/25 06:05:56;;;;;;;;;;;;;;;14.79;65.87;100567.31;5051899;28;20257;-56
2023/05/25 06:08:21;;;;;;;;;;;;;;;14.80;65.33;100563.69;5052772;28;19922;-56
2023/05/25 06:10:47;;;;;;;;;;;;;;;14.85;64.95;100564.34;5037787;28;19912;-57
2023/05/25 06:13:12;;;;;;;;;;;;;;;14.76;64.68;100564.72;5052670;28;19916;-56
2023/05/25 06:15:38;;;;;;;;;;;;;;;14.86;65.07;100560.72;5047287;28;20496;-57
2023/05/25 06:18:03;;;;;;;;;;;;;;;15.02;63.72;100555.63;5047819;28;19916;-56
2023/05/25 06:20:28;;;;;;;;;;;;;;;15.17;65.49;100566.53;5052175;28;19918;-56
2023/05/25 06:22:54;;;;;;;;;;;;;;;15.22;63.88;100569.91;5050743;28;19970;-56
2023/05/25 06:25:19;;;;;;;;;;;;;;;15.30;63.92;100549.03;5052314;28;19913;-56
2023/05/25 06:27:44;;;;;;;;;;;;;;;15.48;62.25;100567.03;5047672;28;19913;-57
2023/05/25 06:30:10;;;;;;;;;;;;;;;15.54;61.87;100574.78;5038608;28;19958;-56
2023/05/25 06:32:35;;;;;;;;;;;;;;;15.66;60.75;100574.25;5045252;28;20007;-56
2023/05/25 06:35:01;;;;;;;;;;;;;;;15.58;60.05;100557.63;5051645;28;19913;-56
2023/05/25 06:37:26;;;;;;;;;;;;;;;15.72;59.74;100568.63;5051823;28;19965;-56
2023/05/25 06:39:52;;;;;;;;;;;;;;;15.81;59.61;100561.97;5050373;28;19944;-57
2023/05/25 06:42:17;;;;;;;;;;;;;;;16.01;60.67;100582.53;5051806;28;20034;-56
2023/05/25 06:44:42;;;;;;;;;;;;;;;16.10;59.27;100569.56;5051653;28;19924;-57
2023/05/25 06:47:07;;;;;;;;;;;;;;;16.19;59.01;100584.38;5031528;28;20167;-56
2023/05/25 06:49:33;;;;;;;;;;;;;;;16.23;60.50;100577.91;5044046;28;19916;-56
2023/05/25 06:51:58;;;;;;;;;;;;;;;16.30;58.22;100590.97;5047780;28;19912;-56
2023/05/25 06:54:23;;;;;;;;;;;;;;;16.43;58.25;100585.88;5046241;28;19913;-56
2023/05/25 06:56:48;;;;;;;;;;;;;;;16.65;58.60;100597.41;5048221;28;20232;-56
2023/05/25 06:59:14;;;;;;;;;;;;;;;16.83;57.13;100596.50;5049634;28;20340;-56
2023/05/25 07:01:39;;;;;;;;;;;;;;;16.85;56.32;100600.00;5051963;28;19947;-56
2023/05/25 07:04:05;;;;;;;;;;;;;;;17.00;57.84;100581.28;5069718;28;20485;-56
2023/05/25 07:06:30;;;;;;;;;;;;;;;17.08;55.72;100583.59;5071529;28;20379;-56
2023/05/25 07:08:55;;;;;;;;;;;;;;;17.48;55.13;100580.63;5053241;28;20317;-56
2023/05/25 07:11:22;;;;;;;;;;;;;;;17.64;53.92;100576.22;5070967;28;19908;-56
2023/05/25 07:13:47;;;;;;;;;;;;;;;17.61;53.04;100572.81;5070467;28;20295;-56
2023/05/25 07:16:13;;;;;;;;;;;;;;;17.75;52.91;100573.81;5053377;28;19912;-56
2023/05/25 07:18:39;;;;;;;;;;;;;;;17.79;52.88;100567.31;5071513;28;20019;-56
2023/05/25 07:21:05;;;;;;;;;;;;;;;17.64;52.15;100575.34;5067440;28;20356;-57
2023/05/25 07:23:30;;;;;;;;;;;;;;;17.88;52.29;100583.00;5071246;28;19985;-57
2023/05/25 07:25:56;;;;;;;;;;;;;;;17.98;51.25;100581.53;5071431;28;20007;-56
2023/05/25 07:28:21;;;;;;;;;;;;;;;18.13;51.28;100583.41;5070031;28;20387;-56
2023/05/25 07:30:46;;;;;;;;;;;;;;;18.29;50.47;100581.63;5071703;28;19912;-57
2023/05/25 07:33:11;;;;;;;;;;;;;;;18.67;50.46;100576.81;5070160;28;20427;-56
2023/05/25 07:35:37;;;;;;;;;;;;;;;18.82;50.18;100570.53;5070069;28;19918;-57
2023/05/25 07:38:05;;;;;;;;;;;;;;;18.93;51.34;100578.88;5070998;28;20731;-56
2023/05/25 07:40:30;;;;;;;;;;;;;;;19.06;49.39;100568.25;5071358;28;20019;-56
2023/05/25 07:42:57;;;;;;;;;;;;;;;19.02;49.83;100577.47;5069843;28;20011;-56
2023/05/25 07:45:22;;;;;;;;;;;;;;;19.56;50.71;100569.72;5070938;28;20335;-56
2023/05/25 07:47:47;;;;;;;;;;;;;;;19.82;48.04;100575.34;5070519;28;19908;-56
2023/05/25 07:50:13;;;;;;;;;;;;;;;20.14;47.67;100591.28;5070785;28;20027;-56
2023/05/25 07:52:38;;;;;;;;;;;;;;;20.13;46.83;100586.00;5069711;28;19916;-56
2023/05/25 07:55:05;;;;;;;;;;;;;;;20.31;47.47;100596.53;5070549;28;19913;-57
2023/05/25 07:57:30;;;;;;;;;;;;;;;20.24;47.15;100584.38;5070585;28;20154;-56
2023/05/25 07:59:55;;;;;;;;;;;;;;;20.36;46.81;100591.69;5069160;28;20364;-56
2023/05/25 08:02:21;;;;;;;;;;;;;;;20.50;46.17;100597.09;5065890;28;20703;-56
2023/05/25 08:04:46;;;;;;;;;;;;;;;20.88;46.49;100587.38;5057858;28;19920;-56
2023/05/25 08:07:11;;;;;;;;;;;;;;;21.41;46.21;100588.38;5053065;28;20655;-57
2023/05/25 08:09:37;;;;;;;;;;;;;;;21.86;45.70;100587.94;5051573;28;19946;-56
2023/05/25 08:12:02;;;;;;;;;;;;;;;22.11;45.02;100590.66;5069511;28;19923;-57
2023/05/25 08:14:27;;;;;;;;;;;;;;;22.52;44.35;100588.53;5069878;28;19912;-56
2023/05/25 08:16:53;;;;;;;;;;;;;;;22.66;43.50;100585.75;5069796;28;19923;-57
2023/05/25 08:19:18;;;;;;;;;;;;;;;22.36;43.03;100587.94;5069745;28;19947;-57
2023/05/25 08:21:43;;;;;;;;;;;;;;;22.14;44.39;100594.00;5068448;28;20042;-56
2023/05/25 08:24:09;;;;;;;;;;;;;;;22.21;44.63;100599.03;5062073;28;19912;-57
2023/05/25 08:26:35;;;;;;;;;;;;;;;21.75;44.48;100601.31;5048748;28;19921;-57
2023/05/25 08:29:03;;;;;;;;;;;;;;;21.70;45.83;100608.88;5063316;28;19983;-57
2023/05/25 08:31:32;;;;;;;;;;;;;;;21.62;45.57;100605.84;5069121;28;19916;-57
2023/05/25 08:33:58;;;;;;;;;;;;;;;21.38;46.18;100613.81;5068589;28;19958;-56
2023/05/25 08:36:23;;;;;;;;;;;;;;;21.09;47.61;100608.63;5069878;28;20537;-56
2023/05/25 08:38:49;;;;;;;;;;;;;;;21.15;47.11;100609.06;5069659;28;19912;-56
2023/05/25 08:41:15;;;;;;;;;;;;;;;21.33;48.39;100609.66;5068561;28;20257;-56
2023/05/25 08:43:41;;;;;;;;;;;;;;;21.49;47.42;100610.38;5068847;28;19959;-56
2023/05/25 08:46:06;;;;;;;;;;;;;;;21.58;46.65;100605.19;5061547;28;20535;-56
2023/05/25 08:48:34;;;;;;;;;;;;;;;21.99;45.97;100603.22;5065528;28;20618;-56
2023/05/25 08:51:03;;;;;;;;;;;;;;;22.00;46.30;100598.69;5069016;28;19999;-57
2023/05/25 08:53:30;;;;;;;;;;;;;;;21.60;45.58;100599.66;5056242;28;20020;-56
2023/05/25 08:55:56;;;;;;;;;;;;;;;21.78;45.59;100602.00;5049672;28;19917;-56
2023/05/25 08:58:29;;;;;;;;;;;;;;;22.13;46.03;100605.84;5049893;28;19908;-56
2023/05/25 09:00:57;;;;;;;;;;;;;;;22.27;45.32;100588.59;5052830;28;19912;-56
2023/05/25 09:03:23;;;;;;;;;;;;;;;22.32;45.00;100591.84;5048122;28;19931;-56
2023/05/25 09:05:48;;;;;;;;;;;;;;;22.79;45.26;100591.13;5053991;28;20356;-56
2023/05/25 09:08:14;;;;;;;;;;;;;;;23.32;45.38;100586.19;5065805;28;19955;-56
2023/05/25 09:10:39;;;;;;;;;;;;;;;23.71;43.61;100592.22;5068687;28;19920;-56
2023/05/25 09:13:05;;;;;;;;;;;;;;;24.06;43.09;100595.81;5046275;28;19924;-56
2023/05/25 09:15:31;;;;;;;;;;;;;;;24.18;43.03;100581.25;5048774;28;19916;-57
2023/05/25 09:17:56;;;;;;;;;;;;;;;24.24;43.15;100603.38;5054258;28;19928;-56
2023/05/25 09:20:22;;;;;;;;;;;;;;;24.02;41.24;100602.50;5048181;28;19909;-56
2023/05/25 09:22:47;;;;;;;;;;;;;;;24.00;42.51;100604.47;5048351;28;19919;-56
2023/05/25 09:25:16;;;;;;;;;;;;;;;24.37;42.13;100604.13;5066671;28;19921;-56
2023/05/25 09:27:41;;;;;;;;;;;;;;;24.51;41.49;100595.72;5050941;28;20395;-56
2023/05/25 09:30:07;;;;;;;;;;;;;;;24.79;42.57;100598.97;5055983;28;19917;-56
2023/05/25 09:32:32;;;;;;;;;;;;;;;24.89;41.49;100602.66;5068421;28;19913;-56
2023/05/25 09:35:14;;;;;;;;;;;;;;;24.72;42.62;100595.88;5052634;28;19928;-56
2023/05/25 09:37:40;;;;;;;;;;;;;;;24.85;41.10;100602.03;5058814;28;19971;-57
2023/05/25 09:40:06;;;;;;;;;;;;;;;24.94;41.75;100597.72;5063399;28;19931;-56
2023/05/25 09:42:32;;;;;;;;;;;;;;;25.01;41.19;100594.34;5054596;28;20380;-56
2023/05/25 09:44:58;;;;;;;;;;;;;;;25.41;40.29;100587.31;5048506;28;19948;-56
2023/05/25 09:47:24;;;;;;;;;;;;;;;25.49;40.57;100590.25;5067460;28;19908;-56
2023/05/25 09:49:49;;;;;;;;;;;;;;;25.37;40.88;100577.66;5067597;28;19916;-56
2023/05/25 09:52:15;;;;;;;;;;;;;;;25.49;40.78;100590.25;5067141;28;19953;-56
2023/05/25 09:54:50;;;;;;;;;;;;;;;25.58;42.10;100577.72;5065555;28;19912;-56
2023/05/25 09:57:16;;;;;;;;;;;;;;;25.51;41.19;100596.44;5067555;28;19916;-56
2023/05/25 09:59:41;;;;;;;;;;;;;;;25.44;41.59;100581.59;5050781;28;20211;-56
2023/05/25 10:02:07;;;;;;;;;;;;;;;25.64;41.83;100580.78;5052860;28;19920;-57
2023/05/25 10:04:32;;;;;;;;;;;;;;;26.07;41.14;100590.72;5052309;28;19927;-56
2023/05/25 10:06:59;;;;;;;;;;;;;;;26.34;39.66;100582.84;5051190;28;19916;-57
2023/05/25 10:09:26;;;;;;;;;;;;;;;26.55;41.03;100591.84;5042925;28;19948;-57
2023/05/25 10:11:53;;;;;;;;;;;;;;;26.89;40.65;100607.81;5037481;28;19917;-57
2023/05/25 10:14:21;;;;;;;;;;;;;;;26.73;40.44;100607.47;5052145;28;19913;-57
2023/05/25 10:16:48;;;;;;;;;;;;;;;26.47;39.62;100602.56;5051227;28;19913;-56
2023/05/25 10:19:20;;;;;;;;;;;;;;;25.97;39.56;100598.81;5049341;28;20010;-57
2023/05/25 10:21:48;;;;;;;;;;;;;;;26.05;40.91;100604.47;5052680;28;19909;-57
2023/05/25 10:24:22;;;;;;;;;;;;;;;26.14;41.97;100608.28;5050229;28;20600;-57
2023/05/25 10:26:49;;;;;;;;;;;;;;;26.30;40.69;100598.59;5051335;28;20008;-57
2023/05/25 10:29:15;;;;;;;;;;;;;;;26.46;39.30;100603.56;5051702;28;19920;-57
2023/05/25 10:31:40;;;;;;;;;;;;;;;26.70;40.35;100610.47;5051256;28;20368;-57
2023/05/25 10:34:06;;;;;;;;;;;;;;;26.69;39.80;100614.19;5050345;28;20388;-57
2023/05/25 10:36:32;;;;;;;;;;;;;;;26.74;39.21;100602.84;5051331;28;19912;-57
2023/05/25 10:38:57;;;;;;;;;;;;;;;27.00;39.22;100606.84;5055048;28;19913;-57
2023/05/25 10:41:23;;;;;;;;;;;;;;;27.03;39.96;100614.75;5032537;28;19917;-57
2023/05/25 10:43:48;;;;;;;;;;;;;;;26.83;38.58;100612.94;5050243;28;19923;-58
2023/05/25 10:46:14;;;;;;;;;;;;;;;27.17;38.73;100617.06;5047347;28;20372;-57
2023/05/25 10:48:45;;;;;;;;;;;;;;;27.49;39.09;100606.81;5049919;28;20069;-57
2023/05/25 10:51:10;;;;;;;;;;;;;;;27.22;39.18;100609.31;5051045;28;19919;-57
2023/05/25 10:53:35;;;;;;;;;;;;;;;27.32;39.62;100610.22;5050622;28;20352;-57
2023/05/25 10:56:04;;;;;;;;;;;;;;;27.47;41.47;100611.53;5048853;28;20049;-57
2023/05/25 10:58:31;;;;;;;;;;;;;;;27.46;38.67;100612.56;5052145;28;19917;-57
2023/05/25 11:01:05;;;;;;;;;;;;;;;27.80;40.34;100613.84;5050652;28;19913;-57
2023/05/25 11:03:43;;;;;;;;;;;;;;;28.00;38.17;100607.38;5064885;28;20299;-57
2023/05/25 11:06:09;;;;;;;;;;;;;;;27.70;37.34;100615.72;5069300;28;19948;-57
2023/05/25 11:08:48;;;;;;;;;;;;;;;27.36;39.11;100611.69;5069788;28;19916;-57
2023/05/25 11:11:14;;;;;;;;;;;;;;;27.74;37.33;100621.75;5070448;28;19916;-57
2023/05/25 11:13:44;;;;;;;;;;;;;;;28.16;37.40;100613.09;5071279;28;19912;-57
2023/05/25 11:16:17;;;;;;;;;;;;;;;27.94;37.45;100610.69;5070659;28;19919;-56
2023/05/25 11:18:51;;;;;;;;;;;;;;;27.67;37.22;100616.00;5051477;28;19995;-56
2023/05/25 11:21:21;;;;;;;;;;;;;;;27.85;37.71;100611.53;5052351;28;19912;-57
2023/05/25 11:24:05;;;;;;;;;;;;;;;28.10;37.49;100613.72;5065855;28;20364;-56
2023/05/25 11:26:50;;;;;;;;;;;;;;;28.14;36.43;100609.66;5070875;28;19912;-56
2023/05/25 11:29:15;;;;;;;;;;;;;;;28.24;36.99;100615.97;5070679;28;19943;-57
2023/05/25 11:31:41;;;;;;;;;;;;;;;28.03;36.14;100600.75;5069887;28;19959;-57
2023/05/25 11:34:08;;;;;;;;;;;;;;;27.43;37.16;100610.09;5070950;28;19908;-57
2023/05/25 11:36:34;;;;;;;;;;;;;;;26.90;38.64;100612.25;5070146;28;20398;-57
2023/05/25 11:39:00;;;;;;;;;;;;;;;26.32;38.94;100612.13;5070182;28;19955;-57
2023/05/25 11:41:26;;;;;;;;;;;;;;;26.36;40.90;100608.97;5069767;28;19912;-57
2023/05/25 11:43:52;;;;;;;;;;;;;;;26.58;40.38;100595.16;5050481;28;19926;-57
2023/05/25 11:46:18;;;;;;;;;;;;;;;26.60;39.66;100603.19;5069541;28;20431;-56
2023/05/25 11:49:04;;;;;;;;;;;;;;;27.32;38.74;100593.81;5069200;28;20257;-56
2023/05/25 11:51:29;;;;;;;;;;;;;;;27.65;38.77;100601.63;5069504;28;20312;-57
2023/05/25 11:53:55;;;;;;;;;;;;;;;28.23;39.44;100597.84;5069893;28;19912;-57
2023/05/25 11:56:23;;;;;;;;;;;;;;;28.37;35.72;100588.25;5070454;28;20318;-57
2023/05/25 11:58:49;;;;;;;;;;;;;;;27.89;37.14;100592.97;5069613;28;19966;-56
2023/05/25 12:01:18;;;;;;;;;;;;;;;27.83;37.10;100583.47;5070074;28;19962;-58
2023/05/25 12:03:45;;;;;;;;;;;;;;;28.48;35.59;100588.09;5070255;28;19924;-57
2023/05/25 12:06:32;;;;;;;;;;;;;;;29.10;36.82;100590.13;5070335;28;19919;-57
2023/05/25 12:08:58;;;;;;;;;;;;;;;28.88;35.58;100591.38;5069297;28;20299;-56
2023/05/25 12:11:34;;;;;;;;;;;;;;;28.99;35.81;100591.19;5069706;28;19912;-57
2023/05/25 12:14:00;;;;;;;;;;;;;;;28.87;36.35;100607.97;5069483;28;19912;-57
2023/05/25 12:16:25;;;;;;;;;;;;;;;27.96;36.79;100588.66;5070438;28;19912;-57
2023/05/25 12:18:51;;;;;;;;;;;;;;;27.76;38.17;100586.94;5068285;28;19919;-57
2023/05/25 12:21:17;;;;;;;;;;;;;;;28.01;37.56;100580.88;5068610;28;20014;-57
2023/05/25 12:23:43;;;;;;;;;;;;;;;28.45;36.59;100578.28;5068998;28;20008;-57
2023/05/25 12:26:10;;;;;;;;;;;;;;;28.04;37.30;100589.66;5068427;28;19913;-57
2023/05/25 12:28:35;;;;;;;;;;;;;;;27.15;37.48;100580.81;5069455;28;19913;-57
2023/05/25 12:31:23;;;;;;;;;;;;;;;26.65;38.55;100592.75;5068628;28;20018;-57